sensor_id;sensor_type;location;lat;lon;timestamp;P1;durP1;ratioP1;P2;durP2;ratioP2
9940;SDS011;5009;50.656;7.188;2022-10-26T00:00:21;5.00;;;3.30;;
9940;SDS011;5009;50.656;7.188;2022-10-26T00:02:47;7.00;;;3.40;;
9940;SDS011;5009;50.656;7.188;2022-10-26T00:05:13;4.17;;;3.50;;
9940;SDS011;5009;50.656;7.188;2022-10-26T00:07:38;5.83;;;3.43;;
9940;SDS011;5009;50.656;7.188;2022-10-26T00:10:04;7.90;;;3.17;;
9940;SDS011;5009;50.656;7.188;2022-10-26T00:12:30;6.50;;;3.60;;
9940;SDS011;5009;50.656;7.188;2022-10-26T00:14:55;10.60;;;4.17;;
9940;SDS011;5009;50.656;7.188;2022-10-26T00:17:21;5.67;;;3.60;;
9940;SDS011;5009;50.656;7.188;2022-10-26T00:19:46;4.43;;;3.17;;
9940;SDS011;5009;50.656;7.188;2022-10-26T00:22:12;5.53;;;3.20;;
9940;SDS011;5009;50.656;7.188;2022-10-26T00:24:37;7.17;;;3.13;;
9940;SDS011;5009;50.656;7.188;2022-10-26T00:27:03;5.00;;;2.50;;
9940;SDS011;5009;50.656;7.188;2022-10-26T00:29:28;7.50;;;3.30;;
9940;SDS011;5009;50.656;7.188;2022-10-26T00:31:54;4.53;;;2.97;;
9940;SDS011;5009;50.656;7.188;2022-10-26T00:34:19;4.60;;;3.00;;
9940;SDS011;5009;50.656;7.188;2022-10-26T00:36:45;7.10;;;2.97;;
9940;SDS011;5009;50.656;7.188;2022-10-26T00:39:11;5.13;;;3.10;;
9940;SDS011;5009;50.656;7.188;2022-10-26T00:41:37;2.70;;;2.50;;
9940;SDS011;5009;50.656;7.188;2022-10-26T00:47:11;7.03;;;3.30;;
9940;SDS011;5009;50.656;7.188;2022-10-26T00:49:50;5.27;;;3.13;;
9940;SDS011;5009;50.656;7.188;2022-10-26T00:52:18;3.67;;;2.77;;
9940;SDS011;5009;50.656;7.188;2022-10-26T00:54:45;5.10;;;2.90;;
9940;SDS011;5009;50.656;7.188;2022-10-26T00:57:11;5.57;;;2.87;;
9940;SDS011;5009;50.656;7.188;2022-10-26T00:59:39;4.90;;;3.23;;
9940;SDS011;5009;50.656;7.188;2022-10-26T01:02:06;6.23;;;3.20;;
9940;SDS011;5009;50.656;7.188;2022-10-26T01:04:32;6.50;;;2.90;;
9940;SDS011;5009;50.656;7.188;2022-10-26T01:06:58;5.40;;;3.03;;
9940;SDS011;5009;50.656;7.188;2022-10-26T01:09:25;6.03;;;2.70;;
9940;SDS011;5009;50.656;7.188;2022-10-26T01:11:51;4.70;;;2.10;;
9940;SDS011;5009;50.656;7.188;2022-10-26T01:14:17;7.17;;;2.60;;
9940;SDS011;5009;50.656;7.188;2022-10-26T01:22:38;4.60;;;2.40;;
9940;SDS011;5009;50.656;7.188;2022-10-26T01:25:16;6.70;;;2.80;;
9940;SDS011;5009;50.656;7.188;2022-10-26T01:28:06;4.03;;;2.07;;
9940;SDS011;5009;50.656;7.188;2022-10-26T01:30:49;5.27;;;2.37;;
9940;SDS011;5009;50.656;7.188;2022-10-26T01:36:14;4.90;;;2.50;;
9940;SDS011;5009;50.656;7.188;2022-10-26T01:44:23;5.13;;;2.27;;
9940;SDS011;5009;50.656;7.188;2022-10-26T01:46:52;4.50;;;2.17;;
9940;SDS011;5009;50.656;7.188;2022-10-26T01:49:21;3.50;;;1.83;;
9940;SDS011;5009;50.656;7.188;2022-10-26T01:51:53;3.70;;;2.27;;
9940;SDS011;5009;50.656;7.188;2022-10-26T01:54:20;3.47;;;2.30;;
9940;SDS011;5009;50.656;7.188;2022-10-26T01:56:52;3.00;;;2.30;;
9940;SDS011;5009;50.656;7.188;2022-10-26T01:59:25;2.50;;;1.80;;
9940;SDS011;5009;50.656;7.188;2022-10-26T02:07:46;6.53;;;2.63;;
9940;SDS011;5009;50.656;7.188;2022-10-26T02:10:38;4.83;;;1.80;;
9940;SDS011;5009;50.656;7.188;2022-10-26T02:13:39;5.90;;;2.10;;
9940;SDS011;5009;50.656;7.188;2022-10-26T02:16:18;4.17;;;2.03;;
9940;SDS011;5009;50.656;7.188;2022-10-26T02:18:58;3.07;;;2.53;;
9940;SDS011;5009;50.656;7.188;2022-10-26T02:21:43;6.60;;;2.40;;
9940;SDS011;5009;50.656;7.188;2022-10-26T02:24:13;6.20;;;2.30;;
9940;SDS011;5009;50.656;7.188;2022-10-26T02:26:41;4.47;;;1.83;;
9940;SDS011;5009;50.656;7.188;2022-10-26T02:29:11;3.60;;;2.40;;
9940;SDS011;5009;50.656;7.188;2022-10-26T02:31:41;3.67;;;2.00;;
9940;SDS011;5009;50.656;7.188;2022-10-26T02:34:10;5.70;;;2.33;;
9940;SDS011;5009;50.656;7.188;2022-10-26T02:36:41;6.10;;;2.47;;
9940;SDS011;5009;50.656;7.188;2022-10-26T02:39:10;4.23;;;2.20;;
9940;SDS011;5009;50.656;7.188;2022-10-26T02:41:44;6.90;;;2.00;;
9940;SDS011;5009;50.656;7.188;2022-10-26T02:46:47;7.63;;;2.83;;
9940;SDS011;5009;50.656;7.188;2022-10-26T02:49:13;6.10;;;2.50;;
9940;SDS011;5009;50.656;7.188;2022-10-26T02:54:16;5.43;;;2.70;;
9940;SDS011;5009;50.656;7.188;2022-10-26T02:57:19;4.60;;;2.43;;
9940;SDS011;5009;50.656;7.188;2022-10-26T02:59:52;3.20;;;2.30;;
9940;SDS011;5009;50.656;7.188;2022-10-26T03:02:19;5.97;;;2.50;;
9940;SDS011;5009;50.656;7.188;2022-10-26T03:05:02;3.30;;;2.60;;
9940;SDS011;5009;50.656;7.188;2022-10-26T03:07:36;3.73;;;2.30;;
9940;SDS011;5009;50.656;7.188;2022-10-26T03:10:02;4.03;;;2.50;;
9940;SDS011;5009;50.656;7.188;2022-10-26T03:12:28;4.70;;;2.70;;
9940;SDS011;5009;50.656;7.188;2022-10-26T03:14:57;4.53;;;2.87;;
9940;SDS011;5009;50.656;7.188;2022-10-26T03:17:26;7.03;;;2.83;;
9940;SDS011;5009;50.656;7.188;2022-10-26T03:19:51;5.30;;;2.80;;
9940;SDS011;5009;50.656;7.188;2022-10-26T03:22:17;3.80;;;2.90;;
9940;SDS011;5009;50.656;7.188;2022-10-26T03:24:43;7.20;;;3.07;;
9940;SDS011;5009;50.656;7.188;2022-10-26T03:27:09;3.07;;;2.73;;
9940;SDS011;5009;50.656;7.188;2022-10-26T03:29:39;8.43;;;2.83;;
9940;SDS011;5009;50.656;7.188;2022-10-26T03:32:05;7.07;;;2.50;;
9940;SDS011;5009;50.656;7.188;2022-10-26T03:34:34;2.83;;;2.50;;
9940;SDS011;5009;50.656;7.188;2022-10-26T03:37:00;5.70;;;2.67;;
9940;SDS011;5009;50.656;7.188;2022-10-26T03:39:26;4.80;;;2.67;;
9940;SDS011;5009;50.656;7.188;2022-10-26T03:41:55;3.50;;;2.47;;
9940;SDS011;5009;50.656;7.188;2022-10-26T03:44:23;5.33;;;2.87;;
9940;SDS011;5009;50.656;7.188;2022-10-26T03:46:49;7.87;;;2.80;;
9940;SDS011;5009;50.656;7.188;2022-10-26T03:49:21;4.67;;;2.60;;
9940;SDS011;5009;50.656;7.188;2022-10-26T03:52:02;3.43;;;2.27;;
9940;SDS011;5009;50.656;7.188;2022-10-26T03:54:28;6.87;;;2.67;;
9940;SDS011;5009;50.656;7.188;2022-10-26T03:56:56;5.83;;;2.80;;
9940;SDS011;5009;50.656;7.188;2022-10-26T03:59:25;9.53;;;3.07;;
9940;SDS011;5009;50.656;7.188;2022-10-26T04:01:51;3.77;;;2.73;;
9940;SDS011;5009;50.656;7.188;2022-10-26T04:04:20;7.70;;;2.73;;
9940;SDS011;5009;50.656;7.188;2022-10-26T04:06:52;4.73;;;2.50;;
9940;SDS011;5009;50.656;7.188;2022-10-26T04:09:25;6.07;;;2.60;;
9940;SDS011;5009;50.656;7.188;2022-10-26T04:11:50;6.47;;;2.97;;
9940;SDS011;5009;50.656;7.188;2022-10-26T04:14:16;5.57;;;2.60;;
9940;SDS011;5009;50.656;7.188;2022-10-26T04:16:42;4.53;;;2.80;;
9940;SDS011;5009;50.656;7.188;2022-10-26T04:19:16;3.83;;;2.73;;
9940;SDS011;5009;50.656;7.188;2022-10-26T04:21:42;5.43;;;2.37;;
9940;SDS011;5009;50.656;7.188;2022-10-26T04:24:17;6.07;;;3.00;;
9940;SDS011;5009;50.656;7.188;2022-10-26T04:26:46;4.60;;;2.70;;
9940;SDS011;5009;50.656;7.188;2022-10-26T04:29:12;7.10;;;2.90;;
9940;SDS011;5009;50.656;7.188;2022-10-26T04:31:38;7.53;;;2.97;;
9940;SDS011;5009;50.656;7.188;2022-10-26T04:34:05;6.83;;;3.23;;
9940;SDS011;5009;50.656;7.188;2022-10-26T04:36:30;5.20;;;2.60;;
9940;SDS011;5009;50.656;7.188;2022-10-26T04:38:56;5.13;;;2.77;;
9940;SDS011;5009;50.656;7.188;2022-10-26T04:41:21;5.80;;;2.93;;
9940;SDS011;5009;50.656;7.188;2022-10-26T04:43:47;4.80;;;2.70;;
9940;SDS011;5009;50.656;7.188;2022-10-26T04:46:12;7.07;;;3.03;;
9940;SDS011;5009;50.656;7.188;2022-10-26T04:48:38;5.93;;;2.90;;
9940;SDS011;5009;50.656;7.188;2022-10-26T04:51:04;6.73;;;3.17;;
9940;SDS011;5009;50.656;7.188;2022-10-26T04:53:30;3.57;;;2.80;;
9940;SDS011;5009;50.656;7.188;2022-10-26T04:55:56;9.90;;;3.80;;
9940;SDS011;5009;50.656;7.188;2022-10-26T04:58:22;8.57;;;3.80;;
9940;SDS011;5009;50.656;7.188;2022-10-26T05:00:48;6.53;;;3.33;;
9940;SDS011;5009;50.656;7.188;2022-10-26T05:03:14;4.97;;;3.70;;
9940;SDS011;5009;50.656;7.188;2022-10-26T05:05:39;6.60;;;4.10;;
9940;SDS011;5009;50.656;7.188;2022-10-26T05:08:05;6.97;;;4.63;;
9940;SDS011;5009;50.656;7.188;2022-10-26T05:10:31;7.50;;;4.13;;
9940;SDS011;5009;50.656;7.188;2022-10-26T05:12:57;5.87;;;3.83;;
9940;SDS011;5009;50.656;7.188;2022-10-26T05:15:24;7.83;;;4.53;;
9940;SDS011;5009;50.656;7.188;2022-10-26T05:17:57;6.57;;;3.40;;
9940;SDS011;5009;50.656;7.188;2022-10-26T05:20:28;8.10;;;4.13;;
9940;SDS011;5009;50.656;7.188;2022-10-26T05:22:56;5.73;;;3.40;;
9940;SDS011;5009;50.656;7.188;2022-10-26T05:25:22;6.43;;;4.00;;
9940;SDS011;5009;50.656;7.188;2022-10-26T05:27:49;7.17;;;3.50;;
9940;SDS011;5009;50.656;7.188;2022-10-26T05:30:14;6.70;;;3.67;;
9940;SDS011;5009;50.656;7.188;2022-10-26T05:32:40;7.43;;;3.43;;
9940;SDS011;5009;50.656;7.188;2022-10-26T05:35:06;5.27;;;3.77;;
9940;SDS011;5009;50.656;7.188;2022-10-26T05:37:31;7.13;;;3.50;;
9940;SDS011;5009;50.656;7.188;2022-10-26T05:39:57;6.63;;;4.00;;
9940;SDS011;5009;50.656;7.188;2022-10-26T05:42:23;3.93;;;3.57;;
9940;SDS011;5009;50.656;7.188;2022-10-26T05:44:49;5.73;;;3.80;;
9940;SDS011;5009;50.656;7.188;2022-10-26T05:47:15;7.83;;;4.03;;
9940;SDS011;5009;50.656;7.188;2022-10-26T05:49:40;6.10;;;4.10;;
9940;SDS011;5009;50.656;7.188;2022-10-26T05:52:06;5.23;;;3.57;;
9940;SDS011;5009;50.656;7.188;2022-10-26T05:54:32;6.27;;;3.67;;
9940;SDS011;5009;50.656;7.188;2022-10-26T05:56:57;9.00;;;4.30;;
9940;SDS011;5009;50.656;7.188;2022-10-26T05:59:23;8.53;;;4.03;;
9940;SDS011;5009;50.656;7.188;2022-10-26T06:01:55;13.80;;;4.20;;
9940;SDS011;5009;50.656;7.188;2022-10-26T06:07:02;5.87;;;4.60;;
9940;SDS011;5009;50.656;7.188;2022-10-26T06:09:38;6.50;;;4.23;;
9940;SDS011;5009;50.656;7.188;2022-10-26T06:12:04;7.13;;;4.30;;
9940;SDS011;5009;50.656;7.188;2022-10-26T06:14:31;8.43;;;4.60;;
9940;SDS011;5009;50.656;7.188;2022-10-26T06:17:00;6.23;;;4.40;;
9940;SDS011;5009;50.656;7.188;2022-10-26T06:19:58;11.63;;;4.73;;
9940;SDS011;5009;50.656;7.188;2022-10-26T06:30:56;6.60;;;4.37;;
9940;SDS011;5009;50.656;7.188;2022-10-26T06:33:22;6.23;;;4.70;;
9940;SDS011;5009;50.656;7.188;2022-10-26T06:38:30;9.27;;;4.50;;
9940;SDS011;5009;50.656;7.188;2022-10-26T06:40:59;7.20;;;3.80;;
9940;SDS011;5009;50.656;7.188;2022-10-26T06:43:27;5.33;;;3.93;;
9940;SDS011;5009;50.656;7.188;2022-10-26T06:46:04;7.47;;;3.37;;
9940;SDS011;5009;50.656;7.188;2022-10-26T06:48:57;6.37;;;3.70;;
9940;SDS011;5009;50.656;7.188;2022-10-26T06:51:28;7.50;;;4.40;;
9940;SDS011;5009;50.656;7.188;2022-10-26T06:56:55;9.57;;;3.43;;
9940;SDS011;5009;50.656;7.188;2022-10-26T06:59:30;9.07;;;3.83;;
9940;SDS011;5009;50.656;7.188;2022-10-26T07:02:08;8.70;;;4.37;;
9940;SDS011;5009;50.656;7.188;2022-10-26T07:04:35;7.33;;;4.23;;
9940;SDS011;5009;50.656;7.188;2022-10-26T07:07:01;6.70;;;3.60;;
9940;SDS011;5009;50.656;7.188;2022-10-26T07:09:26;7.70;;;4.33;;
9940;SDS011;5009;50.656;7.188;2022-10-26T07:11:52;10.80;;;4.30;;
9940;SDS011;5009;50.656;7.188;2022-10-26T07:14:18;6.60;;;4.03;;
9940;SDS011;5009;50.656;7.188;2022-10-26T07:16:43;7.33;;;4.53;;
9940;SDS011;5009;50.656;7.188;2022-10-26T07:19:09;6.83;;;4.13;;
9940;SDS011;5009;50.656;7.188;2022-10-26T07:21:34;5.60;;;3.60;;
9940;SDS011;5009;50.656;7.188;2022-10-26T07:24:00;8.93;;;3.80;;
9940;SDS011;5009;50.656;7.188;2022-10-26T07:26:25;7.43;;;3.80;;
9940;SDS011;5009;50.656;7.188;2022-10-26T07:28:51;5.03;;;3.33;;
9940;SDS011;5009;50.656;7.188;2022-10-26T07:31:17;7.73;;;3.53;;
9940;SDS011;5009;50.656;7.188;2022-10-26T07:33:42;4.40;;;3.50;;
9940;SDS011;5009;50.656;7.188;2022-10-26T07:36:09;6.53;;;3.80;;
9940;SDS011;5009;50.656;7.188;2022-10-26T07:38:38;5.17;;;3.30;;
9940;SDS011;5009;50.656;7.188;2022-10-26T07:41:05;5.50;;;3.60;;
9940;SDS011;5009;50.656;7.188;2022-10-26T07:43:30;5.57;;;3.40;;
9940;SDS011;5009;50.656;7.188;2022-10-26T07:45:56;7.50;;;3.30;;
9940;SDS011;5009;50.656;7.188;2022-10-26T07:48:22;5.17;;;3.27;;
9940;SDS011;5009;50.656;7.188;2022-10-26T07:50:47;7.33;;;3.40;;
9940;SDS011;5009;50.656;7.188;2022-10-26T07:53:13;6.40;;;3.60;;
9940;SDS011;5009;50.656;7.188;2022-10-26T07:55:38;7.87;;;3.73;;
9940;SDS011;5009;50.656;7.188;2022-10-26T07:58:04;7.00;;;3.90;;
9940;SDS011;5009;50.656;7.188;2022-10-26T08:00:30;8.87;;;3.57;;
9940;SDS011;5009;50.656;7.188;2022-10-26T08:02:55;6.80;;;3.37;;
9940;SDS011;5009;50.656;7.188;2022-10-26T08:05:21;8.73;;;4.03;;
9940;SDS011;5009;50.656;7.188;2022-10-26T08:07:47;5.23;;;3.90;;
9940;SDS011;5009;50.656;7.188;2022-10-26T08:10:13;6.13;;;3.57;;
9940;SDS011;5009;50.656;7.188;2022-10-26T08:12:39;7.10;;;3.73;;
9940;SDS011;5009;50.656;7.188;2022-10-26T08:15:06;7.03;;;3.50;;
9940;SDS011;5009;50.656;7.188;2022-10-26T08:17:32;5.80;;;3.50;;
9940;SDS011;5009;50.656;7.188;2022-10-26T08:19:58;6.67;;;3.60;;
9940;SDS011;5009;50.656;7.188;2022-10-26T08:22:24;6.97;;;3.30;;
9940;SDS011;5009;50.656;7.188;2022-10-26T08:24:50;6.07;;;3.43;;
9940;SDS011;5009;50.656;7.188;2022-10-26T08:27:15;4.87;;;3.17;;
9940;SDS011;5009;50.656;7.188;2022-10-26T08:29:41;9.13;;;2.97;;
9940;SDS011;5009;50.656;7.188;2022-10-26T08:32:07;8.67;;;3.20;;
9940;SDS011;5009;50.656;7.188;2022-10-26T08:34:33;3.53;;;2.87;;
9940;SDS011;5009;50.656;7.188;2022-10-26T08:36:59;6.97;;;3.00;;
9940;SDS011;5009;50.656;7.188;2022-10-26T08:39:24;9.80;;;3.57;;
9940;SDS011;5009;50.656;7.188;2022-10-26T08:41:54;7.47;;;3.47;;
9940;SDS011;5009;50.656;7.188;2022-10-26T08:44:35;3.80;;;2.90;;
9940;SDS011;5009;50.656;7.188;2022-10-26T08:52:35;3.88;;;2.97;;
9940;SDS011;5009;50.656;7.188;2022-10-26T08:55:10;6.47;;;3.22;;
9940;SDS011;5009;50.656;7.188;2022-10-26T08:57:40;7.90;;;3.67;;
9940;SDS011;5009;50.656;7.188;2022-10-26T09:00:10;7.50;;;2.80;;
9940;SDS011;5009;50.656;7.188;2022-10-26T09:02:39;5.07;;;3.47;;
9940;SDS011;5009;50.656;7.188;2022-10-26T09:05:08;6.72;;;3.42;;
9940;SDS011;5009;50.656;7.188;2022-10-26T09:13:16;6.05;;;3.00;;
9940;SDS011;5009;50.656;7.188;2022-10-26T09:16:12;5.22;;;2.95;;
9940;SDS011;5009;50.656;7.188;2022-10-26T09:18:52;4.15;;;3.10;;
9940;SDS011;5009;50.656;7.188;2022-10-26T09:21:47;4.95;;;3.10;;
9940;SDS011;5009;50.656;7.188;2022-10-26T09:26:54;7.65;;;3.40;;
9940;SDS011;5009;50.656;7.188;2022-10-26T09:29:22;5.78;;;3.22;;
9940;SDS011;5009;50.656;7.188;2022-10-26T09:31:51;4.82;;;3.25;;
9940;SDS011;5009;50.656;7.188;2022-10-26T09:35:02;7.88;;;3.50;;
9940;SDS011;5009;50.656;7.188;2022-10-26T09:37:20;7.00;;;3.25;;
9940;SDS011;5009;50.656;7.188;2022-10-26T09:39:55;6.38;;;2.85;;
9940;SDS011;5009;50.656;7.188;2022-10-26T09:42:34;6.43;;;2.90;;
9940;SDS011;5009;50.656;7.188;2022-10-26T09:45:06;6.80;;;3.60;;
9940;SDS011;5009;50.656;7.188;2022-10-26T09:47:39;7.88;;;3.30;;
9940;SDS011;5009;50.656;7.188;2022-10-26T09:50:30;7.25;;;3.17;;
9940;SDS011;5009;50.656;7.188;2022-10-26T09:52:59;6.38;;;3.50;;
9940;SDS011;5009;50.656;7.188;2022-10-26T09:55:24;9.25;;;3.67;;
9940;SDS011;5009;50.656;7.188;2022-10-26T09:57:52;5.07;;;3.08;;
9940;SDS011;5009;50.656;7.188;2022-10-26T10:00:22;6.75;;;3.35;;
9940;SDS011;5009;50.656;7.188;2022-10-26T10:02:51;7.97;;;3.63;;
9940;SDS011;5009;50.656;7.188;2022-10-26T10:07:47;7.28;;;3.20;;
9940;SDS011;5009;50.656;7.188;2022-10-26T10:10:17;6.18;;;3.15;;
9940;SDS011;5009;50.656;7.188;2022-10-26T10:12:44;4.65;;;3.15;;
9940;SDS011;5009;50.656;7.188;2022-10-26T10:15:23;5.80;;;3.20;;
9940;SDS011;5009;50.656;7.188;2022-10-26T10:17:50;9.85;;;3.60;;
9940;SDS011;5009;50.656;7.188;2022-10-26T10:20:21;6.40;;;3.38;;
9940;SDS011;5009;50.656;7.188;2022-10-26T10:22:58;8.63;;;3.20;;
9940;SDS011;5009;50.656;7.188;2022-10-26T10:25:35;8.77;;;3.63;;
9940;SDS011;5009;50.656;7.188;2022-10-26T10:28:02;4.82;;;2.80;;
9940;SDS011;5009;50.656;7.188;2022-10-26T10:30:53;9.18;;;3.42;;
9940;SDS011;5009;50.656;7.188;2022-10-26T10:33:23;4.65;;;3.00;;
9940;SDS011;5009;50.656;7.188;2022-10-26T10:36:01;8.30;;;3.40;;
9940;SDS011;5009;50.656;7.188;2022-10-26T10:38:29;8.90;;;3.20;;
9940;SDS011;5009;50.656;7.188;2022-10-26T10:41:02;5.85;;;3.30;;
9940;SDS011;5009;50.656;7.188;2022-10-26T10:43:29;5.30;;;3.20;;
9940;SDS011;5009;50.656;7.188;2022-10-26T10:45:55;6.57;;;3.15;;
9940;SDS011;5009;50.656;7.188;2022-10-26T10:48:28;5.85;;;3.33;;
9940;SDS011;5009;50.656;7.188;2022-10-26T10:51:06;3.63;;;2.92;;
9940;SDS011;5009;50.656;7.188;2022-10-26T10:53:42;3.25;;;2.90;;
9940;SDS011;5009;50.656;7.188;2022-10-26T10:56:33;6.15;;;3.75;;
9940;SDS011;5009;50.656;7.188;2022-10-26T11:07:21;6.07;;;3.08;;
9940;SDS011;5009;50.656;7.188;2022-10-26T11:09:49;5.43;;;2.95;;
9940;SDS011;5009;50.656;7.188;2022-10-26T11:12:18;4.65;;;2.80;;
9940;SDS011;5009;50.656;7.188;2022-10-26T11:14:52;6.20;;;3.30;;
9940;SDS011;5009;50.656;7.188;2022-10-26T11:17:24;7.32;;;3.05;;
9940;SDS011;5009;50.656;7.188;2022-10-26T11:19:59;4.68;;;2.83;;
9940;SDS011;5009;50.656;7.188;2022-10-26T11:22:32;3.72;;;2.50;;
9940;SDS011;5009;50.656;7.188;2022-10-26T11:25:03;8.23;;;3.03;;
9940;SDS011;5009;50.656;7.188;2022-10-26T11:30:05;5.53;;;3.03;;
9940;SDS011;5009;50.656;7.188;2022-10-26T11:32:41;3.40;;;2.35;;
9940;SDS011;5009;50.656;7.188;2022-10-26T11:35:15;3.40;;;2.25;;
9940;SDS011;5009;50.656;7.188;2022-10-26T11:40:33;3.20;;;2.10;;
9940;SDS011;5009;50.656;7.188;2022-10-26T11:43:40;4.15;;;2.30;;
9940;SDS011;5009;50.656;7.188;2022-10-26T11:46:11;6.28;;;2.45;;
9940;SDS011;5009;50.656;7.188;2022-10-26T11:54:30;4.55;;;2.17;;
9940;SDS011;5009;50.656;7.188;2022-10-26T11:57:06;4.65;;;2.30;;
9940;SDS011;5009;50.656;7.188;2022-10-26T11:59:34;8.10;;;2.20;;
9940;SDS011;5009;50.656;7.188;2022-10-26T12:02:25;5.57;;;2.17;;
9940;SDS011;5009;50.656;7.188;2022-10-26T12:04:52;2.85;;;2.35;;
9940;SDS011;5009;50.656;7.188;2022-10-26T12:07:24;4.65;;;2.20;;
9940;SDS011;5009;50.656;7.188;2022-10-26T12:09:53;5.65;;;2.58;;
9940;SDS011;5009;50.656;7.188;2022-10-26T12:23:21;5.20;;;2.60;;
9940;SDS011;5009;50.656;7.188;2022-10-26T12:25:47;3.88;;;2.22;;
9940;SDS011;5009;50.656;7.188;2022-10-26T12:31:39;11.40;;;2.70;;
9940;SDS011;5009;50.656;7.188;2022-10-26T12:33:55;3.20;;;2.10;;
9940;SDS011;5009;50.656;7.188;2022-10-26T12:42:42;4.00;;;2.03;;
9940;SDS011;5009;50.656;7.188;2022-10-26T12:47:10;4.97;;;2.38;;
9940;SDS011;5009;50.656;7.188;2022-10-26T12:52:49;2.42;;;1.98;;
9940;SDS011;5009;50.656;7.188;2022-10-26T12:58:27;4.55;;;2.40;;
9940;SDS011;5009;50.656;7.188;2022-10-26T13:03:40;3.83;;;2.15;;
9940;SDS011;5009;50.656;7.188;2022-10-26T13:09:19;2.95;;;1.67;;
9940;SDS011;5009;50.656;7.188;2022-10-26T13:11:54;2.70;;;1.83;;
9940;SDS011;5009;50.656;7.188;2022-10-26T13:14:31;2.67;;;1.50;;
9940;SDS011;5009;50.656;7.188;2022-10-26T13:17:01;2.42;;;1.25;;
9940;SDS011;5009;50.656;7.188;2022-10-26T13:19:40;1.67;;;1.15;;
9940;SDS011;5009;50.656;7.188;2022-10-26T13:22:14;4.30;;;1.60;;
9940;SDS011;5009;50.656;7.188;2022-10-26T13:25:03;7.18;;;1.60;;
9940;SDS011;5009;50.656;7.188;2022-10-26T13:32:27;2.92;;;1.35;;
9940;SDS011;5009;50.656;7.188;2022-10-26T13:34:59;1.42;;;1.17;;
9940;SDS011;5009;50.656;7.188;2022-10-26T13:37:26;1.08;;;0.98;;
9940;SDS011;5009;50.656;7.188;2022-10-26T13:39:55;1.30;;;1.30;;
9940;SDS011;5009;50.656;7.188;2022-10-26T13:42:25;1.42;;;1.33;;
9940;SDS011;5009;50.656;7.188;2022-10-26T13:47:56;1.77;;;1.48;;
9940;SDS011;5009;50.656;7.188;2022-10-26T13:50:58;2.78;;;1.40;;
9940;SDS011;5009;50.656;7.188;2022-10-26T13:53:39;1.45;;;1.23;;
9940;SDS011;5009;50.656;7.188;2022-10-26T13:56:18;4.43;;;1.65;;
9940;SDS011;5009;50.656;7.188;2022-10-26T13:58:53;2.30;;;1.35;;
9940;SDS011;5009;50.656;7.188;2022-10-26T14:01:26;1.60;;;1.08;;
9940;SDS011;5009;50.656;7.188;2022-10-26T14:03:52;1.50;;;1.30;;
9940;SDS011;5009;50.656;7.188;2022-10-26T14:06:21;2.78;;;1.10;;
9940;SDS011;5009;50.656;7.188;2022-10-26T14:09:00;2.97;;;1.52;;
9940;SDS011;5009;50.656;7.188;2022-10-26T14:11:41;3.95;;;1.52;;
9940;SDS011;5009;50.656;7.188;2022-10-26T14:14:27;1.90;;;1.58;;
9940;SDS011;5009;50.656;7.188;2022-10-26T14:16:56;2.65;;;1.58;;
9940;SDS011;5009;50.656;7.188;2022-10-26T14:19:29;1.40;;;1.30;;
9940;SDS011;5009;50.656;7.188;2022-10-26T14:22:00;2.10;;;1.80;;
9940;SDS011;5009;50.656;7.188;2022-10-26T14:24:28;3.03;;;1.48;;
9940;SDS011;5009;50.656;7.188;2022-10-26T14:26:55;3.15;;;1.20;;
9940;SDS011;5009;50.656;7.188;2022-10-26T14:29:22;2.78;;;1.30;;
9940;SDS011;5009;50.656;7.188;2022-10-26T14:31:49;2.47;;;1.45;;
9940;SDS011;5009;50.656;7.188;2022-10-26T14:34:16;3.13;;;1.50;;
9940;SDS011;5009;50.656;7.188;2022-10-26T14:39:19;2.75;;;1.65;;
9940;SDS011;5009;50.656;7.188;2022-10-26T14:42:02;1.90;;;1.23;;
9940;SDS011;5009;50.656;7.188;2022-10-26T14:44:44;2.92;;;1.80;;
9940;SDS011;5009;50.656;7.188;2022-10-26T14:47:14;1.70;;;1.30;;
9940;SDS011;5009;50.656;7.188;2022-10-26T14:49:47;4.55;;;1.48;;
9940;SDS011;5009;50.656;7.188;2022-10-26T14:52:15;5.63;;;1.63;;
9940;SDS011;5009;50.656;7.188;2022-10-26T14:55:00;2.40;;;1.75;;
9940;SDS011;5009;50.656;7.188;2022-10-26T14:57:38;6.88;;;2.15;;
9940;SDS011;5009;50.656;7.188;2022-10-26T15:02:40;2.60;;;1.75;;
9940;SDS011;5009;50.656;7.188;2022-10-26T15:05:24;2.22;;;1.67;;
9940;SDS011;5009;50.656;7.188;2022-10-26T15:07:56;2.80;;;1.73;;
9940;SDS011;5009;50.656;7.188;2022-10-26T15:13:19;4.50;;;1.80;;
9940;SDS011;5009;50.656;7.188;2022-10-26T15:15:46;1.88;;;1.77;;
9940;SDS011;5009;50.656;7.188;2022-10-26T15:18:23;1.67;;;1.58;;
9940;SDS011;5009;50.656;7.188;2022-10-26T15:20:50;2.15;;;1.73;;
9940;SDS011;5009;50.656;7.188;2022-10-26T15:23:16;1.95;;;1.73;;
9940;SDS011;5009;50.656;7.188;2022-10-26T15:26:16;3.22;;;1.80;;
9940;SDS011;5009;50.656;7.188;2022-10-26T15:31:23;3.13;;;2.00;;
9940;SDS011;5009;50.656;7.188;2022-10-26T15:36:20;4.82;;;2.40;;
9940;SDS011;5009;50.656;7.188;2022-10-26T15:38:48;6.43;;;2.40;;
9940;SDS011;5009;50.656;7.188;2022-10-26T15:41:15;2.65;;;1.88;;
9940;SDS011;5009;50.656;7.188;2022-10-26T15:43:42;2.53;;;2.10;;
9940;SDS011;5009;50.656;7.188;2022-10-26T15:46:10;4.45;;;2.45;;
9940;SDS011;5009;50.656;7.188;2022-10-26T15:48:36;7.72;;;2.65;;
9940;SDS011;5009;50.656;7.188;2022-10-26T15:51:03;4.05;;;2.60;;
9940;SDS011;5009;50.656;7.188;2022-10-26T15:53:29;7.70;;;4.03;;
9940;SDS011;5009;50.656;7.188;2022-10-26T15:55:55;115.28;;;54.17;;
9940;SDS011;5009;50.656;7.188;2022-10-26T15:58:23;114.95;;;60.67;;
9940;SDS011;5009;50.656;7.188;2022-10-26T16:00:49;100.28;;;56.35;;
9940;SDS011;5009;50.656;7.188;2022-10-26T16:03:16;99.90;;;55.40;;
9940;SDS011;5009;50.656;7.188;2022-10-26T16:05:44;70.63;;;42.25;;
9940;SDS011;5009;50.656;7.188;2022-10-26T16:08:13;49.92;;;33.10;;
9940;SDS011;5009;50.656;7.188;2022-10-26T16:10:41;38.03;;;25.23;;
9940;SDS011;5009;50.656;7.188;2022-10-26T16:13:13;32.28;;;20.77;;
9940;SDS011;5009;50.656;7.188;2022-10-26T16:15:39;28.15;;;19.38;;
9940;SDS011;5009;50.656;7.188;2022-10-26T16:18:05;14.95;;;11.98;;
9940;SDS011;5009;50.656;7.188;2022-10-26T16:20:31;14.27;;;10.32;;
9940;SDS011;5009;50.656;7.188;2022-10-26T16:22:56;21.23;;;12.63;;
9940;SDS011;5009;50.656;7.188;2022-10-26T16:25:25;14.52;;;9.75;;
9940;SDS011;5009;50.656;7.188;2022-10-26T16:27:52;17.02;;;9.15;;
9940;SDS011;5009;50.656;7.188;2022-10-26T16:30:19;15.20;;;11.07;;
9940;SDS011;5009;50.656;7.188;2022-10-26T16:32:45;20.70;;;17.60;;
9940;SDS011;5009;50.656;7.188;2022-10-26T16:35:11;22.48;;;17.02;;
9940;SDS011;5009;50.656;7.188;2022-10-26T16:37:37;22.27;;;16.08;;
9940;SDS011;5009;50.656;7.188;2022-10-26T16:40:04;18.52;;;14.32;;
9940;SDS011;5009;50.656;7.188;2022-10-26T16:42:30;12.73;;;8.77;;
9940;SDS011;5009;50.656;7.188;2022-10-26T16:44:57;13.57;;;9.48;;
9940;SDS011;5009;50.656;7.188;2022-10-26T16:47:22;20.30;;;9.60;;
9940;SDS011;5009;50.656;7.188;2022-10-26T16:49:48;14.45;;;8.43;;
9940;SDS011;5009;50.656;7.188;2022-10-26T16:52:14;13.88;;;8.35;;
9940;SDS011;5009;50.656;7.188;2022-10-26T16:54:40;12.20;;;6.20;;
9940;SDS011;5009;50.656;7.188;2022-10-26T16:57:06;9.52;;;5.88;;
9940;SDS011;5009;50.656;7.188;2022-10-26T16:59:31;9.68;;;6.10;;
9940;SDS011;5009;50.656;7.188;2022-10-26T17:01:57;6.32;;;4.97;;
9940;SDS011;5009;50.656;7.188;2022-10-26T17:04:22;9.13;;;5.28;;
9940;SDS011;5009;50.656;7.188;2022-10-26T17:06:48;8.65;;;5.22;;
9940;SDS011;5009;50.656;7.188;2022-10-26T17:09:14;9.23;;;4.10;;
9940;SDS011;5009;50.656;7.188;2022-10-26T17:11:39;5.40;;;4.18;;
9940;SDS011;5009;50.656;7.188;2022-10-26T17:14:05;9.68;;;4.50;;
9940;SDS011;5009;50.656;7.188;2022-10-26T17:16:31;9.95;;;4.97;;
9940;SDS011;5009;50.656;7.188;2022-10-26T17:18:58;10.43;;;6.65;;
9940;SDS011;5009;50.656;7.188;2022-10-26T17:21:28;14.85;;;8.32;;
9940;SDS011;5009;50.656;7.188;2022-10-26T17:23:58;18.65;;;9.95;;
9940;SDS011;5009;50.656;7.188;2022-10-26T17:26:27;15.85;;;8.50;;
9940;SDS011;5009;50.656;7.188;2022-10-26T17:28:53;15.52;;;8.40;;
9940;SDS011;5009;50.656;7.188;2022-10-26T17:31:21;12.38;;;7.38;;
9940;SDS011;5009;50.656;7.188;2022-10-26T17:33:47;10.63;;;6.40;;
9940;SDS011;5009;50.656;7.188;2022-10-26T17:36:14;16.48;;;6.97;;
9940;SDS011;5009;50.656;7.188;2022-10-26T17:38:41;16.33;;;6.65;;
9940;SDS011;5009;50.656;7.188;2022-10-26T17:41:14;9.75;;;6.28;;
9940;SDS011;5009;50.656;7.188;2022-10-26T17:43:41;9.75;;;6.45;;
9940;SDS011;5009;50.656;7.188;2022-10-26T17:46:17;9.70;;;6.60;;